createdAt,value
2022-11-22T00:01:48.407Z,98729.34
2022-11-22T00:07:04.187Z,98740.28
2022-11-22T00:12:19.395Z,98743.44
2022-11-22T00:17:35.177Z,98743.44
2022-11-22T00:22:50.140Z,98743.44
2022-11-22T00:28:05.448Z,98735.84
2022-11-22T00:33:21.219Z,98736.41
2022-11-22T00:38:36.194Z,98724.56
2022-11-22T00:43:51.128Z,98725.16
2022-11-22T00:49:06.161Z,98716.09
2022-11-22T00:54:21.205Z,98722.16
2022-11-22T00:59:36.168Z,98736.03
2022-11-22T01:04:51.155Z,98726.22
2022-11-22T01:10:06.209Z,98733.13
2022-11-22T01:15:21.245Z,98740.69
2022-11-22T01:20:36.149Z,98739.97
2022-11-22T01:25:51.143Z,98726.09
2022-11-22T01:31:06.151Z,98720.69
2022-11-22T01:36:21.305Z,98722.16
2022-11-22T01:41:37.174Z,98732.72
2022-11-22T01:46:52.456Z,98729.75
2022-11-22T01:52:08.160Z,98725.53
2022-11-22T01:57:23.471Z,98724.41
2022-11-22T02:02:39.255Z,98736.03
2022-11-22T02:07:54.138Z,98742.88
2022-11-22T02:13:09.577Z,98745.66
2022-11-22T02:18:25.496Z,98755.31
2022-11-22T02:23:41.176Z,98753.09
2022-11-22T02:28:56.117Z,98755.31
2022-11-22T02:34:11.211Z,98754.56
2022-11-22T02:39:26.447Z,98750.50
2022-11-22T02:44:42.522Z,98755.88
2022-11-22T02:49:58.148Z,98762.72
2022-11-22T02:55:13.507Z,98763.31
2022-11-22T03:00:29.172Z,98761.06
2022-11-22T03:05:44.509Z,98763.31
2022-11-22T03:10:59.919Z,98767.53
2022-11-22T03:16:15.195Z,98768.84
2022-11-22T03:21:30.522Z,98776.44
2022-11-22T03:26:46.204Z,98785.31
2022-11-22T03:32:01.201Z,98784.75
2022-11-22T03:37:16.177Z,98777.19
2022-11-22T03:42:31.184Z,98807.13
2022-11-22T03:47:46.176Z,98803.59
2022-11-22T03:53:01.153Z,98803.06
2022-11-22T03:58:16.159Z,98802.31
2022-11-22T04:03:31.162Z,98810.09
2022-11-22T04:08:46.568Z,98805.44
2022-11-22T04:14:03.268Z,98805.44
2022-11-22T04:19:18.490Z,98820.81
2022-11-22T04:24:34.015Z,98822.84
2022-11-22T04:29:49.195Z,98836.16
2022-11-22T04:35:04.458Z,98833.34
2022-11-22T04:40:20.206Z,98816.28
2022-11-22T04:45:35.261Z,98823.16
2022-11-22T04:50:50.176Z,98815.97
2022-11-22T04:56:04.941Z,98840.72
2022-11-22T05:01:20.629Z,98845.56
2022-11-22T05:06:36.132Z,98844.66
2022-11-22T05:11:51.228Z,98845.94
2022-11-22T05:17:06.240Z,98857.63
2022-11-22T05:22:21.197Z,98844.28
2022-11-22T05:27:35.995Z,98844.13
2022-11-22T05:32:51.299Z,98866.16
2022-11-22T05:38:06.279Z,98868.75
2022-11-22T05:43:21.229Z,98870.03
2022-11-22T05:48:36.220Z,98863.75
2022-11-22T05:53:51.213Z,98856.72
2022-11-22T05:59:06.243Z,98861.53
2022-11-22T06:04:21.202Z,98867.06
2022-11-22T06:09:36.169Z,98860.06
2022-11-22T06:14:51.175Z,98864.28
2022-11-22T06:20:06.916Z,98873.34
2022-11-22T06:25:22.280Z,98863.00
2022-11-22T06:30:37.209Z,98864.28
2022-11-22T06:35:51.927Z,98869.84
2022-11-22T06:41:07.211Z,98875.59
2022-11-22T06:46:22.374Z,98876.34
2022-11-22T06:51:38.135Z,98872.28
2022-11-22T06:56:53.525Z,98875.78
2022-11-22T07:02:09.404Z,98878.72
2022-11-22T07:07:25.240Z,98886.50
2022-11-22T07:12:40.157Z,98896.50
2022-11-22T07:17:55.163Z,98897.22
2022-11-22T07:23:10.171Z,98914.78
2022-11-22T07:28:25.578Z,98921.81
2022-11-22T07:33:41.164Z,98922.75
2022-11-22T07:38:56.178Z,98924.22
2022-11-22T07:44:11.580Z,98932.00
2022-11-22T07:49:27.743Z,98932.16
2022-11-22T07:54:43.273Z,98932.91
2022-11-22T07:59:58.206Z,98938.66
2022-11-22T08:05:12.937Z,98936.59
2022-11-22T08:10:28.501Z,98943.06
2022-11-22T08:15:43.991Z,98917.16
2022-11-22T08:20:59.543Z,98930.69
2022-11-22T08:26:15.004Z,98932.88
2022-11-22T08:31:30.244Z,98916.94
2022-11-22T08:36:45.602Z,98929.72
2022-11-22T08:42:01.218Z,98935.28
2022-11-22T08:47:16.202Z,98949.16
2022-11-22T08:52:31.226Z,98956.19
2022-11-22T08:57:46.518Z,98957.84
2022-11-22T09:03:02.455Z,98949.50
2022-11-22T09:13:36.180Z,98975.44
2022-11-22T09:18:51.174Z,98966.53
2022-11-22T09:24:06.200Z,98968.75
2022-11-22T09:29:21.284Z,98976.56
2022-11-22T09:34:35.980Z,98975.22
2022-11-22T09:39:51.512Z,98985.22
2022-11-22T09:45:07.174Z,98972.81
2022-11-22T09:50:22.315Z,98978.56
2022-11-22T09:55:37.437Z,98970.97
2022-11-22T10:00:53.345Z,98973.91
2022-11-22T10:06:07.948Z,98978.16
2022-11-22T10:11:23.232Z,98983.16
2022-11-22T10:16:38.239Z,98974.25
2022-11-22T10:21:53.231Z,98967.59
2022-11-22T10:27:09.254Z,98965.53
2022-11-22T10:32:24.196Z,98966.47
2022-11-22T10:37:39.206Z,98971.28
2022-11-22T10:42:54.502Z,98955.53
2022-11-22T10:48:10.246Z,98952.94
2022-11-22T10:53:24.942Z,98960.69
2022-11-22T10:58:40.165Z,98954.59
2022-11-22T11:03:55.364Z,98943.66
2022-11-22T11:10:02.807Z,98935.31
2022-11-22T11:14:45.188Z,98943.81
2022-11-22T11:20:00.591Z,98925.88
2022-11-22T11:25:16.608Z,98928.06
2022-11-22T11:30:32.218Z,98923.22
2022-11-22T11:35:47.539Z,98931.94
2022-11-22T11:41:03.186Z,98921.19
2022-11-22T11:46:18.341Z,98921.72
2022-11-22T11:51:33.229Z,98925.97
2022-11-22T11:56:48.255Z,98915.06
2022-11-22T12:02:03.621Z,98914.47
2022-11-22T12:07:19.261Z,98916.50
2022-11-22T12:12:34.271Z,98917.44
2022-11-22T12:17:49.317Z,98911.28
2022-11-22T12:23:04.198Z,98915.56
2022-11-22T12:28:19.272Z,98918.53
2022-11-22T12:33:34.295Z,98905.53
2022-11-22T12:38:49.197Z,98908.31
2022-11-22T12:44:03.984Z,98902.19
2022-11-22T12:49:19.210Z,98896.81
2022-11-22T12:54:34.841Z,98899.75
2022-11-22T12:59:50.236Z,98906.03
2022-11-22T13:05:05.232Z,98916.59
2022-11-22T13:10:20.231Z,98929.19
2022-11-22T13:15:35.200Z,98907.72
2022-11-22T13:20:50.698Z,98918.25
2022-11-22T13:26:10.356Z,98907.31
2022-11-22T13:31:28.224Z,98911.56
2022-11-22T13:36:43.035Z,98903.22
2022-11-22T13:41:58.219Z,98899.84
2022-11-22T13:47:13.027Z,98915.25
2022-11-22T13:52:28.234Z,98906.91
2022-11-22T13:57:43.267Z,98904.88
2022-11-22T14:02:58.212Z,98907.66
2022-11-22T14:08:13.246Z,98903.72
2022-11-22T14:13:28.226Z,98906.50
2022-11-22T14:18:43.208Z,98901.69
2022-11-22T14:23:58.323Z,98894.09
2022-11-22T14:29:13.176Z,98890.72
2022-11-22T14:34:28.400Z,98878.84
2022-11-22T14:39:44.499Z,98877.41
2022-11-22T14:45:00.217Z,98883.09
2022-11-22T14:50:15.569Z,98897.00
2022-11-22T14:55:31.214Z,98891.44
2022-11-22T15:00:46.269Z,98909.66
2022-11-22T15:09:13.833Z,98895.75
2022-11-22T15:11:36.849Z,98897.78
2022-11-22T16:01:32.064Z,98933.16
2022-11-22T16:06:47.190Z,98937.25
2022-11-22T16:12:02.237Z,98935.19
2022-11-22T16:17:17.262Z,98935.19
2022-11-22T16:22:33.329Z,98930.38
2022-11-22T16:27:48.704Z,98933.16
2022-11-22T16:33:04.658Z,98929.84
2022-11-22T16:38:20.242Z,98937.44
2022-11-22T16:43:35.056Z,98934.66
2022-11-22T16:48:50.204Z,98932.63
2022-11-22T16:54:05.600Z,98941.72
2022-11-22T16:59:21.635Z,98933.38
2022-11-22T17:04:40.993Z,98948.56
2022-11-22T17:09:56.335Z,98945.78
2022-11-22T17:15:11.233Z,98943.53
2022-11-22T17:20:26.243Z,98937.25
2022-11-22T17:25:41.751Z,98948.94
2022-11-22T17:30:57.311Z,98949.69
2022-11-22T17:36:12.284Z,98958.03
2022-11-22T17:41:27.215Z,98958.03
2022-11-22T17:46:42.204Z,98969.16
2022-11-22T17:51:57.012Z,98975.47
2022-11-22T17:57:12.556Z,98969.16
2022-11-22T18:02:28.192Z,98963.59
2022-11-22T18:07:43.358Z,98971.19
2022-11-22T18:13:20.177Z,98982.31
2022-11-22T18:18:55.655Z,98978.06
2022-11-22T18:24:08.499Z,98974.53
2022-11-22T18:29:41.568Z,98982.88
2022-11-22T18:34:57.559Z,98972.34
2022-11-22T18:40:13.312Z,98973.81
2022-11-22T18:45:28.245Z,98972.34
2022-11-22T18:50:43.301Z,98983.63
2022-11-22T18:55:58.314Z,98994.00
2022-11-22T19:01:14.278Z,98988.63
2022-11-22T19:06:29.305Z,98985.84
2022-11-22T19:11:44.500Z,98992.69
2022-11-22T19:17:00.256Z,98999.00
2022-11-22T19:22:15.302Z,99001.03
2022-11-22T19:27:30.232Z,99002.34
2022-11-22T19:32:45.569Z,99003.81
2022-11-22T19:38:01.519Z,99002.34
2022-11-22T19:43:17.019Z,99000.91
2022-11-22T19:48:32.521Z,99001.44
2022-11-22T19:53:48.278Z,99004.97
2022-11-22T19:59:03.268Z,99006.25
2022-11-22T20:04:18.626Z,99009.78
2022-11-22T20:09:34.553Z,99006.44
2022-11-22T20:14:50.618Z,99013.66
2022-11-22T20:20:06.267Z,99008.09
2022-11-22T20:25:21.586Z,99000.50
2022-11-22T20:30:37.269Z,99016.56
2022-11-22T20:35:52.249Z,99011.78
2022-11-22T20:41:07.605Z,99016.03
2022-11-22T20:46:23.282Z,99020.31
2022-11-22T20:51:38.012Z,99023.25
2022-11-22T20:56:53.239Z,99020.66
2022-11-22T21:02:09.451Z,99027.69
2022-11-22T21:07:25.389Z,99024.91
2022-11-22T21:12:40.303Z,99032.50
2022-11-22T21:18:23.021Z,99031.22
2022-11-22T21:23:30.317Z,99037.69
2022-11-22T21:28:45.235Z,99041.03
2022-11-22T21:34:00.714Z,99039.00
2022-11-22T21:39:16.581Z,99048.06
2022-11-22T21:44:32.577Z,99046.03
2022-11-22T21:49:48.191Z,99048.06
2022-11-22T21:55:03.295Z,99056.41
2022-11-22T22:00:18.218Z,99059.94
2022-11-22T22:06:11.271Z,99064.75
2022-11-22T22:11:26.303Z,99064.03
2022-11-22T22:16:41.100Z,99066.97
2022-11-22T22:21:56.238Z,99067.53
2022-11-22T22:27:11.647Z,99072.38
2022-11-22T22:32:27.578Z,99068.28
2022-11-22T22:37:43.543Z,99076.63
2022-11-22T22:42:59.618Z,99066.81
2022-11-22T22:48:15.249Z,99086.84
2022-11-22T22:53:30.218Z,99075.53
2022-11-22T22:58:45.253Z,99092.56
2022-11-22T23:04:00.324Z,99097.41
2022-11-22T23:09:15.259Z,99095.19
2022-11-22T23:14:30.338Z,99103.50
2022-11-22T23:19:45.592Z,99098.88
2022-11-22T23:25:01.249Z,99109.25
2022-11-22T23:30:16.560Z,99103.16
2022-11-22T23:35:32.594Z,99108.91
2022-11-22T23:40:48.260Z,99110.75
2022-11-22T23:46:03.573Z,99108.72
2022-11-22T23:51:19.280Z,99125.25
2022-11-22T23:56:34.551Z,99129.31
